Date,TemperatureHighF,TemperatureAvgF,TemperatureLowF,DewpointHighF,DewpointAvgF,DewpointLowF,HumidityHigh,HumidityAvg,HumidityLow,PressureMaxIn,PressureMinIn,WindSpeedMaxMPH,WindSpeedAvgMPH,GustSpeedMaxMPH,PrecipitationSumIn
2013-8-1,87.0,75.2,66.2,63.3,56.5,50.9,89,54,35,29.84,29.70,11,1,16,0.06
2013-8-2,90.1,73.7,62.9,63.1,58.9,52.9,89,64,29,29.81,29.66,11,2,18,0.12
2013-8-3,89.1,75.0,60.7,61.0,56.5,49.2,92,57,28,29.83,29.70,8,1,9,0.00
2013-8-4,91.8,77.5,64.7,62.0,56.8,50.0,86,52,26,29.81,29.65,13,1,23,0.15
2013-8-5,89.2,74.1,62.1,62.4,58.2,53.1,91,61,32,29.81,29.66,11,1,17,0.03
2013-8-6,88.7,74.3,63.5,58.9,53.9,48.4,70,51,28,29.75,29.65,13,1,16,0.00
2013-8-7,82.5,70.6,59.6,57.9,54.6,52.3,82,58,38,29.78,29.69,16,2,19,0.00
2013-8-8,86.2,72.6,60.5,57.5,51.7,43.8,81,52,25,29.78,29.68,14,2,21,0.00
2013-8-9,88.1,73.2,57.3,53.7,47.8,39.1,76,44,19,29.88,29.76,10,1,12,0.00
2013-8-10,84.8,70.7,61.3,56.3,51.8,45.6,75,53,33,30.00,29.82,12,2,17,0.04
2013-8-11,83.2,69.7,59.6,57.9,54.5,48.8,91,62,32,30.03,29.83,8,1,11,0.01
2013-8-12,85.5,72.3,65.8,59.5,55.6,50.3,77,57,34,29.92,29.77,13,1,14,0.00
2013-8-13,88.7,74.2,61.4,57.5,51.3,43.0,76,48,23,29.90,29.76,11,1,11,0.00
2013-8-14,89.7,73.8,60.5,58.6,51.1,41.6,76,48,21,29.87,29.73,17,1,23,0.00
2013-8-15,91.5,75.4,60.9,56.5,50.8,41.5,74,45,19,29.87,29.74,9,1,11,0.00
2013-8-16,93.5,79.7,63.5,53.0,46.8,35.1,65,35,13,29.84,29.69,10,1,15,0.00
2013-8-17,95.5,81.4,70.4,55.2,47.0,39.4,52,32,15,29.80,29.62,14,1,18,0.01
2013-8-18,92.4,79.2,66.5,53.5,49.8,45.2,58,38,21,29.80,29.65,12,1,13,0.00
2013-8-19,94.0,78.1,64.5,56.1,50.6,44.6,64,40,19,29.79,29.63,13,1,15,0.00
2013-8-20,90.2,74.8,61.2,59.9,55.2,51.9,77,53,29,29.81,29.65,11,1,11,0.00
2013-8-21,89.4,76.4,62.9,56.5,52.7,47.2,77,46,29,29.80,29.68,10,1,14,0.00
2013-8-22,90.5,78.7,64.0,57.5,47.8,38.0,56,35,25,29.83,29.65,10,1,16,0.00
2013-8-23,87.7,75.7,61.0,52.1,46.3,34.2,57,36,23,29.79,29.64,12,2,17,0.00
2013-8-24,85.0,74.5,67.2,61.6,53.5,46.3,70,49,34,29.84,29.70,19,1,20,0.02
2013-8-25,82.4,71.0,65.7,65.1,59.4,55.0,93,69,42,29.91,29.82,13,1,19,0.13
2013-8-26,89.4,74.6,62.0,63.5,56.2,47.4,87,56,31,29.96,29.78,9,1,12,0.02
2013-8-27,89.1,75.8,62.4,57.4,52.3,43.9,76,47,29,29.84,29.68,11,1,12,0.00
2013-8-28,87.6,76.0,67.1,57.4,53.3,48.2,61,46,31,29.85,29.72,13,1,16,0.00
2013-8-29,87.2,75.4,67.5,59.6,55.4,52.6,68,51,32,29.89,29.79,13,2,15,0.00
2013-8-30,92.6,77.9,63.4,62.0,56.0,45.1,85,51,23,29.87,29.69,10,1,12,0.00
2013-8-31,93.6,79.2,63.7,58.7,52.9,45.8,77,43,23,29.75,29.57,9,1,12,0.00